Catherine Desgagnes — VOWN — position and weather

sailwx.info

Track history (hours):
 
Tides and Currents Weather Stations Pressure Air Temp Water Temp Dewpoint Dewpoint Depression Visibility Wind Speed Wind Dir Waves Ship Positions

Catherine Desgagnes

Last reported at 2014-Sep-17 19:34 UTC. Time now 2014-Sep-17 19:40 UTC.
Position N 45°34' W 073°31'.

Length 125 m; draft 5 m.

Type: Ship. MMSI: 316001203.

Date/timePositionNaut miles runAvg speedWind from/ knotsBaromVisibWave heightAir tempDewpointWater temp
2014-Sep-17 19:34N 45°34' W 073°31'0 0.1
2014-Sep-17 15:30N 45°33' W 073°31'0 0.0
2014-Sep-17 14:30N 45°33' W 073°31'0 0.0
2014-Sep-17 10:06N 45°33' W 073°31'0 0.0
2014-Sep-17 09:30N 45°33' W 073°31'0 0.0
2014-Sep-17 08:30N 45°33' W 073°31'0 0.0
2014-Sep-17 07:18N 45°33' W 073°31'0 0.0
2014-Sep-17 06:12N 45°33' W 073°31'0 0.0
2014-Sep-17 05:24N 45°33' W 073°31'0 0.0
2014-Sep-17 04:30N 45°33' W 073°31'0 0.0
2014-Sep-17 03:30N 45°33' W 073°31'2 0.5
2014-Sep-16 23:34N 45°35' W 073°30'9 9.0
2014-Sep-16 22:33N 45°43' W 073°26'1010.3
2014-Sep-16 21:33N 45°51' W 073°16'1310.7
2014-Sep-16 20:22N 46°03' W 073°09'1910.4
2014-Sep-16 18:33N 46°14' W 072°46'1010.6
2014-Sep-16 17:33N 46°19' W 072°33'1110.6
2014-Sep-16 16:33N 46°26' W 072°21'10 9.5
2014-Sep-16 15:33N 46°32' W 072°11'9 8.6
2014-Sep-16 14:33N 46°36' W 071°60'  
2014-Sep-13 05:34N 45°55' W 073°13'1413.8
2014-Sep-13 04:34N 45°44' W 073°25'1212.0
2014-Sep-13 03:34N 45°33' W 073°31'4 3.6
2014-Sep-13 02:21N 45°29' W 073°31'6 2.9
2014-Sep-13 00:26N 45°24' W 073°36'6 6.9
2014-Sep-12 23:33N 45°24' W 073°44'9 9.2
2014-Sep-12 22:33N 45°19' W 073°55'1 1.1
2014-Sep-12 21:34N 45°18' W 073°56'6 5.5
2014-Sep-12 20:33N 45°14' W 074°01'8 8.5
2014-Sep-12 19:34N 45°14' W 074°13'1211.7
2014-Sep-12 18:33N 45°08' W 074°27'95 5.0
2014-Sep-11 23:26N 44°12' W 076°16'910.6
2014-Sep-11 22:34N 44°05' W 076°25'  
Track history (hours):
 
Tides and Currents Weather Stations Pressure Air Temp Water Temp Dewpoint Dewpoint Depression Visibility Wind Speed Wind Dir Waves Ship Positions

Catherine Desgagnes

Last reported at 2014-Sep-17 19:34 UTC. Time now 2014-Sep-17 19:40 UTC.
Position N 45°34' W 073°31'.

Length 125 m; draft 5 m.

Type: Ship. MMSI: 316001203.

Date/timePositionNaut miles runAvg speedWind from/ knotsBaromVisibWave heightAir tempDewpointWater temp
2014-Sep-17 19:34N 45°34' W 073°31'0 0.1
2014-Sep-17 15:30N 45°33' W 073°31'0 0.0
2014-Sep-17 14:30N 45°33' W 073°31'0 0.0
2014-Sep-17 10:06N 45°33' W 073°31'0 0.0
2014-Sep-17 09:30N 45°33' W 073°31'0 0.0
2014-Sep-17 08:30N 45°33' W 073°31'0 0.0
2014-Sep-17 07:18N 45°33' W 073°31'0 0.0
2014-Sep-17 06:12N 45°33' W 073°31'0 0.0
2014-Sep-17 05:24N 45°33' W 073°31'0 0.0
2014-Sep-17 04:30N 45°33' W 073°31'0 0.0
2014-Sep-17 03:30N 45°33' W 073°31'2 0.5
2014-Sep-16 23:34N 45°35' W 073°30'9 9.0
2014-Sep-16 22:33N 45°43' W 073°26'1010.3
2014-Sep-16 21:33N 45°51' W 073°16'1310.7
2014-Sep-16 20:22N 46°03' W 073°09'1910.4
2014-Sep-16 18:33N 46°14' W 072°46'1010.6
2014-Sep-16 17:33N 46°19' W 072°33'1110.6
2014-Sep-16 16:33N 46°26' W 072°21'10 9.5
2014-Sep-16 15:33N 46°32' W 072°11'9 8.6
2014-Sep-16 14:33N 46°36' W 071°60'  
2014-Sep-13 05:34N 45°55' W 073°13'1413.8
2014-Sep-13 04:34N 45°44' W 073°25'1212.0
2014-Sep-13 03:34N 45°33' W 073°31'4 3.6
2014-Sep-13 02:21N 45°29' W 073°31'6 2.9
2014-Sep-13 00:26N 45°24' W 073°36'6 6.9
2014-Sep-12 23:33N 45°24' W 073°44'9 9.2
2014-Sep-12 22:33N 45°19' W 073°55'1 1.1
2014-Sep-12 21:34N 45°18' W 073°56'6 5.5
2014-Sep-12 20:33N 45°14' W 074°01'8 8.5
2014-Sep-12 19:34N 45°14' W 074°13'1211.7
2014-Sep-12 18:33N 45°08' W 074°27'95 5.0
2014-Sep-11 23:26N 44°12' W 076°16'910.6
2014-Sep-11 22:34N 44°05' W 076°25'  

Dump ship's entire track history